Time;durP1;ratioP1;P1;durP2;ratioP2;P2;SDS_P1;SDS_P2;PMS_P1;PMS_P2;Temp;Humidity;BMP_temperature;BMP_pressure;BME280_temperature;BME280_humidity;BME280_pressure;Samples;Min_cycle;Max_cycle;Signal;HPM_P1;HPM_P2
2021/12/11 00:01:18;;;;;;;33.80;14.50;;;;;;;20.14;20.13;96997.91;4990793;28;20434;-78
2021/12/11 00:04:01;;;;;;;31.67;15.30;;;;;;;21.09;19.13;97001.13;4974683;28;20035;-78
2021/12/11 00:06:35;;;;;;;35.28;14.88;;;;;;;21.20;18.73;96994.03;4974186;28;20043;-78
2021/12/11 00:09:15;;;;;;;33.92;14.88;;;;;;;20.36;19.41;96993.41;4974419;28;20399;-78
2021/12/11 00:11:45;;;;;;;36.88;15.45;;;;;;;19.80;20.23;96999.06;4982354;28;20474;-78
2021/12/11 00:14:13;;;;;;;36.08;16.50;;;;;;;19.12;20.90;97001.63;4993702;28;20038;-78
2021/12/11 00:16:40;;;;;;;34.38;14.15;;;;;;;19.38;20.50;96988.81;4993954;28;20100;-78
2021/12/11 00:19:22;;;;;;;38.78;16.17;;;;;;;19.71;20.21;97001.66;4993339;28;20053;-78
2021/12/11 00:21:50;;;;;;;42.78;17.67;;;;;;;19.26;20.51;96997.78;4993392;28;20121;-78
2021/12/11 00:24:25;;;;;;;40.60;17.17;;;;;;;18.47;21.30;97005.19;4993621;28;20041;-78
2021/12/11 00:27:04;;;;;;;36.65;15.38;;;;;;;19.50;20.28;97004.09;4993745;28;20026;-78
2021/12/11 00:29:33;;;;;;;35.20;15.85;;;;;;;20.54;18.99;97018.84;4993848;28;20045;-78
2021/12/11 00:32:23;;;;;;;43.40;17.10;;;;;;;21.08;18.46;97036.63;4993540;28;20038;-78
2021/12/11 00:34:52;;;;;;;35.60;15.10;;;;;;;21.04;18.28;97029.53;4993594;28;20034;-78
2021/12/11 00:37:21;;;;;;;36.35;16.42;;;;;;;19.69;19.54;97022.78;4993588;28;20180;-78
2021/12/11 00:39:53;;;;;;;42.45;16.33;;;;;;;19.77;19.61;97024.97;4983604;28;20475;-78
2021/12/11 00:42:23;;;;;;;34.55;15.75;;;;;;;20.75;18.61;97023.91;4974763;28;20034;-78
2021/12/11 00:44:53;;;;;;;34.87;15.30;;;;;;;21.54;17.83;97026.22;4977969;28;20034;-78
2021/12/11 00:47:19;;;;;;;;;;;;;;;21.37;18.12;97042.25;4993829;28;20845;-78
2021/12/11 00:50:09;;;;;;;38.88;15.57;;;;;;;21.75;17.52;97047.97;4993462;28;19968;-78
2021/12/11 00:52:42;;;;;;;30.50;13.52;;;;;;;21.62;17.60;97059.09;4992583;28;20030;-78
2021/12/11 00:55:33;;;;;;;32.97;13.68;;;;;;;21.64;17.76;97065.00;4992487;28;20034;-78
2021/12/11 00:58:15;;;;;;;31.70;14.05;;;;;;;21.96;17.59;97064.91;4992996;28;20085;-79
2021/12/11 01:00:54;;;;;;;37.17;16.60;;;;;;;21.86;17.60;97077.19;4995773;28;20091;-78
2021/12/11 01:03:30;;;;;;;30.25;12.80;;;;;;;21.83;17.68;97082.84;4975631;28;20030;-78
2021/12/11 01:05:58;;;;;;;36.38;15.60;;;;;;;21.13;18.35;97082.75;4976070;28;20124;-79
2021/12/11 01:08:32;;;;;;;30.90;13.55;;;;;;;21.39;18.25;97100.44;4981318;28;20062;-78
2021/12/11 01:11:03;;;;;;;29.08;12.77;;;;;;;21.81;17.88;97096.47;4996581;28;20034;-78
2021/12/11 01:13:32;;;;;;;34.60;15.68;;;;;;;20.99;18.41;97095.03;4997246;28;20446;-78
2021/12/11 01:16:05;;;;;;;33.88;13.70;;;;;;;20.84;19.00;97104.97;4995257;28;20053;-78
2021/12/11 01:18:35;;;;;;;26.85;13.30;;;;;;;21.52;18.25;97124.41;4996747;28;20388;-79
2021/12/11 01:26:51;;;;;;;30.85;13.88;;;;;;;22.12;17.54;97119.16;4990187;28;20496;-79
2021/12/11 01:29:19;;;;;;;33.40;14.90;;;;;;;21.80;17.87;97112.44;4996498;28;20497;-79
2021/12/11 01:31:48;;;;;;;28.70;13.75;;;;;;;21.63;18.13;97119.31;4996336;28;20042;-79
2021/12/11 01:34:14;;;;;;;30.88;13.88;;;;;;;21.80;17.87;97123.63;4996098;28;20494;-79
2021/12/11 01:36:42;;;;;;;31.85;14.68;;;;;;;22.11;17.61;97118.38;4996536;28;20039;-79
2021/12/11 01:39:14;;;;;;;33.45;14.82;;;;;;;22.31;17.51;97123.78;4991479;28;20570;-79
2021/12/11 01:41:41;;;;;;;34.40;13.45;;;;;;;22.44;17.23;97125.38;4996113;28;20113;-79
2021/12/11 01:44:14;;;;;;;29.02;12.82;;;;;;;22.11;17.65;97129.56;4995383;28;20027;-78
2021/12/11 01:46:41;;;;;;;28.63;13.43;;;;;;;22.15;17.84;97129.47;4996021;28;20100;-79
2021/12/11 01:49:20;;;;;;;35.35;14.30;;;;;;;21.69;17.89;97133.53;4995783;28;20050;-79
2021/12/11 01:52:02;;;;;;;34.85;14.90;;;;;;;20.95;18.77;97139.00;4996006;28;20044;-79
2021/12/11 01:54:35;;;;;;;38.72;15.38;;;;;;;20.67;19.04;97131.31;4996210;28;20461;-79
2021/12/11 01:57:09;;;;;;;32.38;14.05;;;;;;;20.80;19.01;97132.19;4996154;28;20049;-79
2021/12/11 01:59:40;;;;;;;30.77;12.23;;;;;;;21.38;18.58;97130.34;4995474;28;20030;-78
2021/12/11 02:02:12;;;;;;;30.55;13.18;;;;;;;21.88;18.20;97129.84;4995636;28;20509;-79
2021/12/11 02:04:43;;;;;;;33.70;14.30;;;;;;;22.18;17.62;97131.34;4995718;28;20446;-79
2021/12/11 02:07:28;;;;;;;30.85;13.82;;;;;;;22.24;17.58;97132.41;4995611;28;20026;-79
2021/12/11 02:09:57;;;;;;;33.60;13.80;;;;;;;22.31;17.60;97129.38;4978384;28;20034;-79
2021/12/11 02:12:33;;;;;;;32.30;14.00;;;;;;;22.60;17.26;97139.28;4994757;28;20030;-79
2021/12/11 02:15:02;;;;;;;36.80;14.88;;;;;;;23.00;16.88;97142.44;4995600;28;20034;-79
2021/12/11 02:17:33;;;;;;;32.88;14.38;;;;;;;23.26;16.71;97149.56;4995211;28;20157;-79
2021/12/11 02:20:05;;;;;;;33.15;14.50;;;;;;;23.45;16.51;97149.78;4995949;28;20390;-79
2021/12/11 02:22:38;;;;;;;36.85;14.43;;;;;;;23.56;16.48;97159.38;4995181;28;20049;-79
2021/12/11 02:25:12;;;;;;;33.90;13.23;;;;;;;23.36;16.57;97156.06;4995340;28;20157;-79
2021/12/11 02:27:53;;;;;;;32.38;13.50;;;;;;;23.26;16.76;97163.56;4994271;28;20394;-79
2021/12/11 02:30:50;;;;;;;27.45;13.18;;;;;;;23.47;16.55;97164.91;4995274;28;20038;-79
2021/12/11 02:33:24;;;;;;;39.08;14.48;;;;;;;23.75;16.25;97175.13;4975137;28;20063;-79
2021/12/11 02:36:09;;;;;;;36.15;14.80;;;;;;;23.91;16.32;97186.16;4977511;28;20026;-79
2021/12/11 02:38:43;;;;;;;39.22;15.00;;;;;;;24.05;16.21;97179.28;4974446;28;20452;-79
2021/12/11 02:41:19;;;;;;;38.03;14.63;;;;;;;24.19;16.09;97186.41;4975655;28;20031;-79
2021/12/11 02:43:55;;;;;;;36.20;14.50;;;;;;;24.28;16.13;97184.47;4974210;28;20031;-79
2021/12/11 02:46:30;;;;;;;38.08;15.77;;;;;;;24.34;16.15;97191.03;4975384;28;20589;-79
2021/12/11 02:49:09;;;;;;;34.25;14.55;;;;;;;24.34;16.08;97202.25;4975437;28;20118;-79
2021/12/11 02:51:44;;;;;;;35.80;14.30;;;;;;;24.02;16.33;97200.59;4989250;28;20081;-79
2021/12/11 02:54:21;;;;;;;33.30;14.05;;;;;;;23.90;16.42;97209.03;4994646;28;20490;-79
2021/12/11 02:56:55;;;;;;;35.75;14.88;;;;;;;23.85;16.45;97210.41;4994831;28;20097;-79
2021/12/11 02:59:25;;;;;;;43.20;16.98;;;;;;;23.63;16.47;97205.97;4994693;28;20061;-79
2021/12/11 03:02:09;;;;;;;35.90;14.52;;;;;;;23.19;17.29;97203.00;4994208;28;20145;-79
2021/12/11 03:04:40;;;;;;;46.15;17.17;;;;;;;23.30;17.00;97202.66;4994701;28;20034;-79
2021/12/11 03:07:09;;;;;;;38.38;14.90;;;;;;;23.33;17.18;97208.16;4994540;28;20495;-79
2021/12/11 03:09:40;;;;;;;38.28;16.05;;;;;;;22.95;17.23;97214.97;4994723;28;20031;-79
2021/12/11 03:12:09;;;;;;;38.53;15.52;;;;;;;22.67;17.69;97211.03;4977373;28;20389;-79
2021/12/11 03:14:36;;;;;;;37.15;13.50;;;;;;;21.75;18.54;97210.00;4994513;28;20470;-79
2021/12/11 03:17:04;;;;;;;36.05;14.65;;;;;;;21.49;18.82;97211.09;4974801;28;20031;-79
2021/12/11 03:19:33;;;;;;;48.13;17.52;;;;;;;21.53;18.95;97214.56;4974886;28;20426;-79
2021/12/11 03:22:01;;;;;;;49.67;18.55;;;;;;;21.34;19.06;97211.44;4974943;28;20035;-79
2021/12/11 03:24:29;;;;;;;46.35;17.50;;;;;;;21.01;19.41;97218.19;4979608;28;20105;-79
2021/12/11 03:26:57;;;;;;;47.33;18.02;;;;;;;21.26;19.18;97221.19;4992696;28;20480;-79
2021/12/11 03:29:24;;;;;;;37.55;15.27;;;;;;;21.50;19.07;97215.44;4994234;28;20034;-79
2021/12/11 03:31:51;;;;;;;33.38;13.13;;;;;;;20.47;19.89;97219.78;4993884;28;20501;-79
2021/12/11 03:34:22;;;;;;;43.33;17.45;;;;;;;19.99;20.52;97225.91;4994539;28;20050;-79
2021/12/11 03:36:48;;;;;;;;;;;;;;;19.96;20.42;97227.56;4976959;28;20051;-79
2021/12/11 03:39:22;;;;;;;60.42;22.25;;;;;;;19.52;20.81;97222.38;4974682;28;19961;-79
2021/12/11 03:41:53;;;;;;;49.85;20.15;;;;;;;19.74;20.68;97229.13;4981595;28;20030;-79
2021/12/11 03:44:20;;;;;;;43.25;16.30;;;;;;;19.73;20.86;97237.94;4974567;28;20034;-79
2021/12/11 03:46:49;;;;;;;45.15;17.67;;;;;;;19.28;21.29;97240.25;4981141;28;20453;-79
2021/12/11 03:49:17;;;;;;;48.78;21.02;;;;;;;19.46;21.22;97246.38;4992188;28;20127;-79
2021/12/11 03:51:46;;;;;;;41.72;16.45;;;;;;;19.09;21.53;97235.41;4993658;28;20033;-79
2021/12/11 03:54:18;;;;;;;57.15;20.42;;;;;;;19.14;21.48;97237.69;4993644;28;20058;-79
2021/12/11 03:56:44;;;;;;;51.42;18.75;;;;;;;19.64;20.97;97244.06;4993731;28;20109;-79
2021/12/11 03:59:13;;;;;;;47.72;19.10;;;;;;;19.96;20.41;97251.81;4993342;28;20447;-79
2021/12/11 04:01:45;;;;;;;47.90;19.80;;;;;;;20.82;19.89;97252.50;4993883;28;20517;-79
2021/12/11 04:04:21;;;;;;;46.78;18.83;;;;;;;21.49;18.86;97247.38;4993836;28;20442;-79
2021/12/11 04:06:49;;;;;;;50.22;20.17;;;;;;;21.01;19.34;97248.88;4993286;28;20061;-79
2021/12/11 04:09:17;;;;;;;47.85;18.40;;;;;;;21.22;19.10;97248.41;4993039;28;20038;-79
2021/12/11 04:11:44;;;;;;;49.53;19.48;;;;;;;21.50;18.77;97241.34;4993797;28;20110;-79
2021/12/11 04:14:17;;;;;;;51.42;19.83;;;;;;;21.82;18.57;97246.91;4993595;28;20045;-79
2021/12/11 04:16:44;;;;;;;46.13;18.33;;;;;;;22.21;18.21;97259.09;4993348;28;20117;-79
2021/12/11 04:19:11;;;;;;;41.35;17.23;;;;;;;22.44;17.98;97262.44;4993627;28;20046;-79
2021/12/11 04:21:39;;;;;;;44.90;17.60;;;;;;;22.78;17.78;97267.47;4990704;28;20490;-79
2021/12/11 04:24:06;;;;;;;47.00;18.30;;;;;;;22.92;17.36;97274.69;4993689;28;20038;-80
2021/12/11 04:26:34;;;;;;;43.15;16.90;;;;;;;22.66;17.55;97266.22;4993557;28;20168;-79
2021/12/11 04:29:00;;;;;;;44.13;17.67;;;;;;;22.72;17.68;97274.06;4993406;28;20092;-79
2021/12/11 04:31:31;;;;;;;41.50;17.45;;;;;;;22.67;17.48;97276.19;4993770;28;20038;-79
2021/12/11 04:34:02;;;;;;;48.03;18.48;;;;;;;22.93;17.39;97279.03;4971132;28;20027;-79
2021/12/11 04:36:33;;;;;;;46.70;19.27;;;;;;;22.29;17.59;97286.41;4978278;28;20030;-79
2021/12/11 04:39:02;;;;;;;38.25;16.17;;;;;;;21.62;18.15;97281.75;4977894;28;20483;-79
2021/12/11 04:41:38;;;;;;;44.40;19.60;;;;;;;21.27;18.67;97275.03;4977429;28;20034;-78
2021/12/11 04:44:13;;;;;;;38.10;15.73;;;;;;;21.67;18.25;97289.63;4977536;28;20037;-79
2021/12/11 04:46:39;;;;;;;46.08;17.45;;;;;;;22.17;17.68;97283.59;4977738;28;20049;-78
2021/12/11 04:49:18;;;;;;;45.90;17.42;;;;;;;22.27;17.68;97296.47;4994718;28;20155;-79
2021/12/11 04:51:59;;;;;;;48.55;20.38;;;;;;;22.00;17.73;97294.00;4997222;28;20056;-79
2021/12/11 05:00:13;;;;;;;37.17;15.90;;;;;;;19.30;20.49;97316.56;4997019;28;20379;-78
2021/12/11 05:03:08;;;;;;;44.40;18.90;;;;;;;19.85;19.97;97323.66;4997231;28;20034;-78
2021/12/11 05:05:52;;;;;;;52.22;20.27;;;;;;;18.78;21.00;97329.22;4996585;28;20137;-79
2021/12/11 05:11:00;;;;;;;51.28;22.02;;;;;;;18.25;21.90;97334.56;4997127;28;20490;-79
2021/12/11 05:13:28;;;;;;;55.63;22.05;;;;;;;18.51;21.55;97334.69;4996650;28;20061;-78
2021/12/11 05:15:58;;;;;;;48.60;20.05;;;;;;;19.16;20.87;97344.59;4995221;28;20034;-78
2021/12/11 05:18:30;;;;;;;49.53;19.38;;;;;;;19.21;20.92;97340.53;4996692;28;20077;-79
2021/12/11 05:21:02;;;;;;;40.50;16.17;;;;;;;19.28;20.62;97346.00;4990193;28;20045;-78
2021/12/11 05:23:28;;;;;;;46.75;18.00;;;;;;;19.28;20.79;97352.38;4996387;28;20069;-78
2021/12/11 05:25:55;;;;;;;40.55;18.27;;;;;;;19.54;20.56;97353.59;4996068;28;20505;-78
2021/12/11 05:28:22;;;;;;;43.13;18.52;;;;;;;20.33;19.67;97354.69;4996209;28;20041;-79
2021/12/11 05:30:50;;;;;;;44.67;17.38;;;;;;;20.61;19.26;97353.34;4996520;28;20479;-78
2021/12/11 05:33:18;;;;;;;47.13;18.30;;;;;;;20.80;18.98;97368.53;4986149;28;20157;-78
2021/12/11 05:35:45;;;;;;;46.42;18.17;;;;;;;20.48;19.23;97371.94;4976831;28;20026;-79
2021/12/11 05:38:15;;;;;;;40.50;16.13;;;;;;;20.32;19.44;97383.78;4977099;28;20066;-79
2021/12/11 05:40:45;;;;;;;33.13;13.27;;;;;;;20.27;19.24;97383.47;4982774;28;20022;-78
2021/12/11 05:43:12;;;;;;;35.83;14.15;;;;;;;20.20;19.56;97380.78;4995631;28;20273;-79
2021/12/11 05:45:40;;;;;;;47.55;17.10;;;;;;;20.05;19.70;97377.44;4995382;28;20065;-79
2021/12/11 05:48:07;;;;;;;41.55;16.17;;;;;;;20.02;19.88;97383.88;4996134;28;20035;-79
2021/12/11 05:50:39;;;;;;;35.22;14.73;;;;;;;19.53;20.31;97379.88;5004396;28;20410;-79
2021/12/11 05:53:05;;;;;;;32.67;13.35;;;;;;;19.80;20.08;97380.66;5015509;28;20470;-79
2021/12/11 05:55:33;;;;;;;34.67;14.00;;;;;;;20.35;19.37;97382.91;5015242;28;20034;-79
2021/12/11 05:58:03;;;;;;;33.05;13.77;;;;;;;20.38;19.32;97395.22;5006109;28;20402;-79
2021/12/11 06:00:33;;;;;;;36.15;15.65;;;;;;;20.02;19.54;97392.25;4995879;28;20538;-79
2021/12/11 06:03:02;;;;;;;33.80;13.65;;;;;;;19.88;19.89;97387.66;4995359;28;20047;-79
2021/12/11 06:05:28;;;;;;;30.63;12.75;;;;;;;20.11;19.65;97392.50;4995506;28;20410;-79
2021/12/11 06:07:55;;;;;;;38.70;16.23;;;;;;;20.63;19.20;97403.94;4995701;28;20027;-79
2021/12/11 06:10:21;;;;;;;38.63;14.90;;;;;;;21.13;18.61;97409.34;4994180;28;20048;-78
2021/12/11 06:12:50;;;;;;;39.42;14.52;;;;;;;21.56;18.26;97412.00;4995673;28;20057;-78
2021/12/11 06:15:17;;;;;;;35.28;13.15;;;;;;;22.09;17.68;97410.78;4995122;28;20045;-78
2021/12/11 06:17:46;;;;;;;35.13;14.23;;;;;;;20.99;18.46;97429.13;4995486;28;20041;-79
2021/12/11 06:20:17;;;;;;;32.67;14.35;;;;;;;18.50;21.48;97424.06;4995373;28;20489;-79
2021/12/11 06:22:43;;;;;;;;;;;;;;;18.31;21.63;97430.16;4995525;28;20066;-78
2021/12/11 06:25:17;;;;;;;28.67;11.05;;;;;;;19.66;20.30;97435.78;4995347;28;20325;-78
2021/12/11 06:27:43;;;;;;;25.30;11.20;;;;;;;19.95;19.81;97450.88;4995071;28;20516;-78
2021/12/11 06:30:12;;;;;;;28.88;12.20;;;;;;;20.66;19.20;97456.84;4995300;28;20034;-78
2021/12/11 06:32:38;;;;;;;23.90;11.52;;;;;;;20.73;19.00;97467.09;4992886;28;20053;-78
2021/12/11 06:35:12;;;;;;;27.15;12.60;;;;;;;18.66;21.10;97466.00;4995212;28;20074;-78
2021/12/11 06:37:38;;;;;;;25.52;11.10;;;;;;;18.62;21.30;97468.03;4995141;28;20045;-78
2021/12/11 06:40:05;;;;;;;29.95;13.90;;;;;;;20.00;19.88;97465.09;4994781;28;20046;-78
2021/12/11 06:42:31;;;;;;;28.75;12.63;;;;;;;20.42;19.25;97457.31;4977357;28;20089;-78
2021/12/11 06:44:57;;;;;;;27.60;10.43;;;;;;;20.63;19.01;97463.28;4994835;28;20034;-78
2021/12/11 06:47:24;;;;;;;24.65;10.52;;;;;;;21.11;18.71;97454.44;4995244;28;20042;-78
2021/12/11 06:49:50;;;;;;;23.98;10.55;;;;;;;21.76;18.05;97466.63;4994156;28;20058;-78
2021/12/11 06:52:21;;;;;;;24.75;10.35;;;;;;;22.13;17.78;97484.16;4994840;28;20247;-78
2021/12/11 06:54:49;;;;;;;21.20;9.20;;;;;;;22.58;17.36;97487.88;4994680;28;20084;-78
2021/12/11 06:57:16;;;;;;;30.55;12.93;;;;;;;22.95;16.88;97486.53;4994572;28;20031;-78
2021/12/11 06:59:42;;;;;;;29.88;11.77;;;;;;;23.11;16.81;97492.88;4994743;28;20026;-78
2021/12/11 07:02:08;;;;;;;23.73;10.55;;;;;;;23.26;16.64;97493.28;4994780;28;20034;-79
2021/12/11 07:04:35;;;;;;;21.50;10.27;;;;;;;23.23;16.73;97500.56;4990387;28;20030;-78
2021/12/11 07:07:02;;;;;;;41.20;14.40;;;;;;;23.40;16.80;97508.94;4994253;28;20034;-79
2021/12/11 07:09:30;;;;;;;26.40;10.85;;;;;;;23.56;16.48;97509.66;4994454;28;20032;-79
2021/12/11 07:11:57;;;;;;;23.98;9.93;;;;;;;23.53;16.41;97502.13;4977948;28;20133;-78
2021/12/11 07:14:27;;;;;;;25.52;10.38;;;;;;;23.54;16.44;97500.91;4995534;28;20061;-78
2021/12/11 07:16:53;;;;;;;26.45;10.60;;;;;;;23.46;16.33;97505.13;4994467;28;20070;-79
2021/12/11 07:19:19;;;;;;;21.15;10.00;;;;;;;23.30;16.57;97502.34;4994714;28;20039;-79
2021/12/11 07:21:50;;;;;;;24.33;10.30;;;;;;;23.11;16.85;97515.28;4977192;28;20034;-79
2021/12/11 07:24:18;;;;;;;;;;;;;;;23.04;16.72;97509.06;4994662;28;20030;-79
2021/12/11 07:26:44;;;;;;;19.67;9.13;;;;;;;23.06;16.76;97512.22;4994454;28;19914;-79
2021/12/11 07:29:16;;;;;;;25.40;11.68;;;;;;;22.24;17.51;97509.91;4994250;28;20039;-79
2021/12/11 07:31:47;;;;;;;23.00;10.65;;;;;;;21.49;18.42;97519.09;4974774;28;20069;-79
2021/12/11 07:34:15;;;;;;;26.52;11.00;;;;;;;22.08;18.17;97521.81;4975207;28;20043;-79
2021/12/11 07:36:42;;;;;;;23.77;10.90;;;;;;;22.71;17.62;97518.75;4974536;28;20027;-79
2021/12/11 07:39:11;;;;;;;22.52;9.50;;;;;;;22.13;17.50;97540.09;4976772;28;20035;-79
2021/12/11 07:41:38;;;;;;;27.85;11.60;;;;;;;22.29;17.78;97543.69;4993647;28;20037;-78
2021/12/11 07:44:04;;;;;;;26.40;11.02;;;;;;;22.86;17.32;97548.75;4993295;28;20084;-79
2021/12/11 07:46:31;;;;;;;31.17;12.00;;;;;;;22.55;17.14;97553.88;4974553;28;20034;-79
2021/12/11 07:48:58;;;;;;;23.25;11.52;;;;;;;20.99;18.73;97560.31;4976083;28;20034;-79
2021/12/11 07:51:27;;;;;;;23.10;10.43;;;;;;;20.70;19.20;97570.38;4993977;28;20031;-79
2021/12/11 07:53:54;;;;;;;22.10;10.27;;;;;;;21.45;18.82;97584.63;4994210;28;20061;-79
2021/12/11 07:56:21;;;;;;;23.27;11.10;;;;;;;21.77;18.17;97599.53;4993727;28;20073;-79
2021/12/11 07:58:50;;;;;;;34.08;13.98;;;;;;;21.82;18.34;97609.44;4992637;28;20449;-79
2021/12/11 08:01:17;;;;;;;32.55;12.63;;;;;;;22.21;18.05;97614.22;4993839;28;20031;-79
2021/12/11 08:03:43;;;;;;;30.38;13.10;;;;;;;22.37;17.77;97606.66;4988049;28;20035;-79
2021/12/11 08:06:11;;;;;;;25.23;11.63;;;;;;;22.63;17.74;97608.50;4976092;28;20038;-79
2021/12/11 08:08:39;;;;;;;30.63;12.50;;;;;;;23.13;17.56;97596.84;4993842;28;20552;-79
2021/12/11 08:11:12;;;;;;;24.30;11.80;;;;;;;22.74;17.26;97607.44;4997795;28;20026;-79
2021/12/11 08:13:43;;;;;;;24.27;10.40;;;;;;;22.49;17.63;97605.19;4997577;28;20034;-79
2021/12/11 08:16:11;;;;;;;32.50;13.43;;;;;;;22.96;17.67;97600.09;4997550;28;20027;-79
2021/12/11 08:18:38;;;;;;;27.33;12.73;;;;;;;22.98;17.40;97606.03;4997818;28;20487;-79
2021/12/11 08:21:05;;;;;;;26.95;12.10;;;;;;;23.05;17.15;97605.88;4997446;28;20060;-79
2021/12/11 08:23:31;;;;;;;25.38;12.13;;;;;;;23.28;17.13;97609.25;4997643;28;20062;-79
2021/12/11 08:25:59;;;;;;;30.92;13.90;;;;;;;22.46;17.67;97618.03;4997094;28;20044;-79
2021/12/11 08:28:29;;;;;;;21.67;11.05;;;;;;;22.22;17.79;97624.97;4981941;28;20490;-79
2021/12/11 08:30:57;;;;;;;23.35;13.00;;;;;;;22.61;17.69;97632.53;4991730;28;20118;-79
2021/12/11 08:33:24;;;;;;;28.58;13.02;;;;;;;22.40;17.49;97632.97;4997769;28;20478;-79
2021/12/11 08:35:51;;;;;;;27.30;11.20;;;;;;;22.28;17.67;97636.44;4997045;28;20549;-79
2021/12/11 08:38:18;;;;;;;24.55;12.10;;;;;;;22.57;18.19;97649.34;4997297;28;20035;-79
2021/12/11 08:40:50;;;;;;;26.45;12.43;;;;;;;23.00;17.32;97656.78;4997387;28;20031;-79
2021/12/11 08:43:19;;;;;;;22.55;11.00;;;;;;;22.82;17.09;97665.63;4997103;28;20513;-79
2021/12/11 08:45:57;;;;;;;28.67;12.77;;;;;;;22.68;17.48;97672.31;4997173;28;20117;-79
2021/12/11 08:48:25;;;;;;;26.77;12.70;;;;;;;22.67;17.42;97667.16;4991958;28;20034;-79
2021/12/11 08:50:56;;;;;;;22.10;10.13;;;;;;;22.61;17.73;97677.31;4996757;28;20047;-79
2021/12/11 08:53:23;;;;;;;20.00;11.55;;;;;;;23.08;17.48;97686.19;4991283;28;20030;-79
2021/12/11 08:55:53;;;;;;;26.38;12.13;;;;;;;23.52;17.21;97693.91;4997048;28;20034;-79
2021/12/11 08:58:22;;;;;;;26.20;11.77;;;;;;;23.04;16.96;97696.69;4997096;28;20026;-78
2021/12/11 09:00:58;;;;;;;26.48;10.98;;;;;;;23.30;17.09;97706.84;4996969;28;20041;-79
2021/12/11 09:03:39;;;;;;;32.28;14.57;;;;;;;22.17;17.88;97706.56;4996428;28;20113;-79
2021/12/11 09:06:11;;;;;;;25.98;13.27;;;;;;;20.74;19.58;97716.97;4979975;28;20061;-79
2021/12/11 09:08:59;;;;;;;22.70;11.15;;;;;;;21.34;18.95;97716.84;4997069;28;20042;-79
2021/12/11 09:11:38;;;;;;;28.35;11.82;;;;;;;21.18;19.40;97711.13;4996954;28;20026;-79
2021/12/11 09:14:10;;;;;;;25.30;12.75;;;;;;;21.53;19.34;97711.75;4996876;28;20097;-79
2021/12/11 09:16:47;;;;;;;31.65;14.30;;;;;;;22.05;18.87;97720.41;4996815;28;20530;-79
2021/12/11 09:19:20;;;;;;;26.00;12.73;;;;;;;22.17;18.66;97719.78;4996786;28;20046;-79
2021/12/11 09:21:49;;;;;;;29.83;14.60;;;;;;;22.51;18.15;97725.84;4996184;28;20045;-79
2021/12/11 09:24:25;;;;;;;27.40;12.38;;;;;;;22.54;17.90;97730.59;4977379;28;20042;-79
2021/12/11 09:27:11;;;;;;;25.60;13.13;;;;;;;22.45;17.93;97724.78;4975720;28;20039;-79
2021/12/11 09:29:47;;;;;;;26.98;13.30;;;;;;;22.88;17.88;97736.66;4978732;28;20394;-79
2021/12/11 09:32:26;;;;;;;26.40;13.13;;;;;;;22.93;17.74;97736.13;4996666;28;20049;-79
2021/12/11 09:35:08;;;;;;;31.60;13.88;;;;;;;23.40;17.27;97733.84;4996160;28;20427;-79
2021/12/11 09:37:35;;;;;;;29.20;13.90;;;;;;;22.69;17.47;97738.25;4978686;28;20031;-79
2021/12/11 09:40:26;;;;;;;26.13;13.20;;;;;;;22.75;18.34;97737.75;4995820;28;20561;-79
2021/12/11 09:42:52;;;;;;;;;;;;;;;23.25;17.47;97738.97;4996774;28;20426;-79
2021/12/11 09:45:23;;;;;;;26.95;13.07;;;;;;;23.59;17.31;97747.00;4996351;28;19917;-79
2021/12/11 09:47:53;;;;;;;;;;;;;;;23.74;16.99;97738.97;4990152;28;20030;-79
2021/12/11 09:50:30;;;;;;;28.48;13.88;;;;;;;24.07;16.69;97751.75;4996079;28;20361;-79
2021/12/11 09:52:56;;;;;;;30.15;14.00;;;;;;;23.53;17.08;97754.34;4996364;28;20371;-79
2021/12/11 09:55:33;;;;;;;27.58;12.07;;;;;;;23.74;17.43;97761.41;4995681;28;20037;-79
2021/12/11 09:58:04;;;;;;;29.02;14.27;;;;;;;23.94;17.03;97757.25;4995770;28;20037;-79
2021/12/11 10:00:33;;;;;;;22.13;11.77;;;;;;;24.01;16.76;97765.47;4995913;28;20031;-79
2021/12/11 10:03:00;;;;;;;26.63;13.23;;;;;;;24.20;17.29;97766.59;4995660;28;20030;-79
2021/12/11 10:05:42;;;;;;;25.40;13.02;;;;;;;24.20;17.03;97768.66;4996014;28;20038;-79
2021/12/11 10:08:30;;;;;;;24.88;13.48;;;;;;;23.73;16.90;97769.06;4995764;28;20189;-79
2021/12/11 10:11:11;;;;;;;29.67;14.15;;;;;;;23.74;17.53;97770.63;4995968;28;20035;-79
2021/12/11 10:13:57;;;;;;;28.33;12.98;;;;;;;24.05;17.22;97765.41;4990249;28;20039;-79
2021/12/11 10:16:27;;;;;;;27.27;12.95;;;;;;;24.44;16.77;97767.94;4995996;28;20367;-79
2021/12/11 10:18:54;;;;;;;31.92;15.95;;;;;;;24.78;16.72;97764.59;4995758;28;20034;-79
2021/12/11 10:21:29;;;;;;;27.95;14.25;;;;;;;24.99;16.93;97774.41;4995443;28;20026;-79
2021/12/11 10:23:59;;;;;;;24.05;12.88;;;;;;;25.14;16.55;97775.53;4995552;28;20030;-79
2021/12/11 10:26:26;;;;;;;24.27;12.63;;;;;;;24.88;16.44;97777.50;4987042;28;20062;-79
2021/12/11 10:28:57;;;;;;;25.98;13.38;;;;;;;24.72;16.82;97783.97;4975960;28;20030;-79
2021/12/11 10:31:26;;;;;;;25.83;13.10;;;;;;;24.61;17.19;97788.31;4989046;28;20026;-79
2021/12/11 10:33:54;;;;;;;26.20;13.80;;;;;;;24.82;16.77;97784.13;4995145;28;20550;-79
2021/12/11 10:36:26;;;;;;;29.02;14.85;;;;;;;23.77;16.92;97792.16;4995164;28;20063;-79
2021/12/11 10:38:54;;;;;;;26.67;12.75;;;;;;;23.40;17.62;97789.09;4995180;28;20035;-79
2021/12/11 10:41:22;;;;;;;29.73;15.43;;;;;;;23.64;17.71;97784.91;4960664;28;20034;-79
2021/12/11 10:43:53;;;;;;;25.13;13.43;;;;;;;24.19;17.29;97778.28;4994966;28;20088;-79
2021/12/11 10:46:23;;;;;;;26.20;13.20;;;;;;;24.65;17.26;97781.38;4992821;28;20417;-79
2021/12/11 10:48:49;;;;;;;24.00;12.85;;;;;;;24.91;16.98;97784.25;4994263;28;20042;-80
2021/12/11 10:51:24;;;;;;;26.02;13.43;;;;;;;25.00;16.53;97779.56;4994979;28;20022;-79
2021/12/11 10:53:52;;;;;;;29.95;16.17;;;;;;;24.47;16.57;97783.91;4994713;28;20157;-79
2021/12/11 10:56:21;;;;;;;31.10;15.80;;;;;;;24.57;17.05;97787.66;4977419;28;20441;-79
2021/12/11 10:58:52;;;;;;;33.35;16.85;;;;;;;24.70;17.00;97788.47;4994684;28;20117;-79
2021/12/11 11:01:30;;;;;;;34.70;16.42;;;;;;;24.69;16.97;97784.09;4994558;28;20031;-79
2021/12/11 11:04:11;;;;;;;33.88;16.92;;;;;;;24.22;16.78;97791.44;4994414;28;20501;-79
2021/12/11 11:06:37;;;;;;;;;;;;;;;24.33;16.96;97792.72;4994946;28;20027;-79
2021/12/11 11:09:07;;;;;;;31.63;15.68;;;;;;;24.63;17.28;97797.09;4994704;28;20281;-79
2021/12/11 11:11:35;;;;;;;35.20;16.63;;;;;;;24.86;16.95;97801.66;4992165;28;20538;-79
2021/12/11 11:14:04;;;;;;;33.72;18.05;;;;;;;25.05;16.80;97798.69;4973667;28;20042;-79
2021/12/11 11:16:31;;;;;;;30.85;14.98;;;;;;;25.14;16.67;97800.81;4975038;28;20070;-79
2021/12/11 11:18:58;;;;;;;31.52;16.27;;;;;;;25.06;16.58;97810.72;4974944;28;20086;-79
2021/12/11 11:21:47;;;;;;;29.80;15.80;;;;;;;24.82;16.39;97812.22;4986744;28;20105;-79
2021/12/11 11:24:14;;;;;;;37.78;18.38;;;;;;;24.66;16.62;97815.84;4992971;28;20367;-79
2021/12/11 11:26:45;;;;;;;48.65;26.67;;;;;;;24.47;16.73;97823.19;4975025;28;20047;-79
2021/12/11 11:29:17;;;;;;;42.97;22.35;;;;;;;24.41;16.96;97827.75;4973382;28;20118;-79
2021/12/11 11:31:46;;;;;;;32.15;17.10;;;;;;;24.38;16.76;97827.88;4975310;28;20030;-79
2021/12/11 11:34:16;;;;;;;29.98;15.73;;;;;;;23.77;17.48;97825.03;4989537;28;20073;-79
2021/12/11 11:36:43;;;;;;;31.55;14.40;;;;;;;23.64;17.84;97819.31;4992703;28;20041;-79
2021/12/11 11:39:13;;;;;;;24.10;13.80;;;;;;;23.85;17.76;97823.63;4993923;28;20065;-79
2021/12/11 11:41:44;;;;;;;28.33;15.00;;;;;;;24.11;17.72;97827.41;4993967;28;20130;-79
2021/12/11 11:44:11;;;;;;;29.17;14.77;;;;;;;24.35;17.08;97832.34;4992945;28;20034;-79
2021/12/11 11:46:40;;;;;;;27.45;14.52;;;;;;;24.30;17.24;97846.91;4977065;28;20072;-79
2021/12/11 11:49:08;;;;;;;29.15;14.73;;;;;;;24.33;17.41;97859.28;4993719;28;20047;-80
2021/12/11 11:51:42;;;;;;;40.92;16.80;;;;;;;24.21;17.11;97857.19;4994163;28;20053;-79